Time;durP1;ratioP1;P1;durP2;ratioP2;P2;SDS_P1;SDS_P2;PMS_P1;PMS_P2;Temp;Humidity;BMP_temperature;BMP_pressure;BME280_temperature;BME280_humidity;BME280_pressure;Samples;Min_cycle;Max_cycle;Signal;HPM_P1;HPM_P2
2023/08/08 00:00:29;;;;;;;;;;;14.80;70.10;;;;;;6099785;23;20069;-63
2023/08/08 00:02:55;;;;;;;0.28;0.28;;;14.70;69.40;;;;;;6125960;23;19924;-63
2023/08/08 00:05:21;;;;;;;0.10;0.10;;;14.70;70.10;;;;;;6125574;23;20068;-63
2023/08/08 00:07:47;;;;;;;0.10;0.10;;;14.70;70.10;;;;;;6126676;23;20080;-63
2023/08/08 00:10:13;;;;;;;0.10;0.10;;;14.70;70.00;;;;;;6125523;23;20436;-63
2023/08/08 00:12:39;;;;;;;0.10;0.10;;;14.60;70.00;;;;;;6126223;23;20018;-63
2023/08/08 00:15:06;;;;;;;0.30;0.28;;;14.60;70.20;;;;;;6125706;23;20174;-63
2023/08/08 00:17:32;;;;;;;0.10;0.10;;;14.50;70.10;;;;;;6100073;23;20081;-63
2023/08/08 00:19:58;;;;;;;0.10;0.10;;;14.60;70.20;;;;;;6125626;23;20018;-63
2023/08/08 00:22:24;;;;;;;0.10;0.10;;;14.50;70.10;;;;;;6099661;23;20013;-63
2023/08/08 00:24:50;;;;;;;;;;;14.50;70.00;;;;;;6100302;23;20018;-62
2023/08/08 00:27:16;;;;;;;0.10;0.10;;;14.50;69.80;;;;;;6148618;23;20264;-63
2023/08/08 00:29:42;;;;;;;0.17;0.17;;;14.50;70.10;;;;;;6125790;23;20014;-63
2023/08/08 00:32:08;;;;;;;0.10;0.10;;;14.40;70.00;;;;;;6125736;23;20017;-63
2023/08/08 00:34:34;;;;;;;0.10;0.10;;;14.40;70.30;;;;;;6125550;23;20348;-63
2023/08/08 00:37:00;;;;;;;0.20;0.20;;;14.40;70.20;;;;;;6125638;23;20018;-63
2023/08/08 00:39:26;;;;;;;0.73;0.32;;;14.40;70.30;;;;;;6125767;23;20089;-63
2023/08/08 00:41:52;;;;;;;0.10;0.10;;;14.30;70.30;;;;;;6125598;23;20018;-64
2023/08/08 00:44:18;;;;;;;0.10;0.10;;;14.30;70.50;;;;;;6099628;23;20061;-63
2023/08/08 00:46:44;;;;;;;0.10;0.10;;;14.30;70.40;;;;;;6099496;23;20017;-63
2023/08/08 00:49:10;;;;;;;;;;;14.30;69.70;;;;;;6126347;23;20494;-64
2023/08/08 00:51:37;;;;;;;0.40;0.40;;;14.20;70.20;;;;;;6148260;23;20318;-63
2023/08/08 00:54:04;;;;;;;0.10;0.10;;;14.10;70.60;;;;;;6099612;23;20017;-64
2023/08/08 00:56:31;;;;;;;0.47;0.10;;;14.00;70.60;;;;;;6099322;23;20015;-63
2023/08/08 00:58:57;;;;;;;0.10;0.10;;;14.00;70.40;;;;;;6100245;23;20336;-63
2023/08/08 01:01:23;;;;;;;0.00;0.00;;;13.90;70.60;;;;;;6099378;23;20419;-64
2023/08/08 01:03:49;;;;;;;0.10;0.10;;;13.80;70.80;;;;;;6125515;23;20037;-63
2023/08/08 01:07:12;;;;;;;0.10;0.10;;;13.70;70.70;;;;;;6099128;23;20018;-63
2023/08/08 01:10:07;;;;;;;0.80;0.43;;;13.80;70.40;;;;;;6125442;23;20025;-63
2023/08/08 01:12:39;;;;;;;0.10;0.10;;;13.80;70.50;;;;;;6125629;23;20017;-63
2023/08/08 01:15:08;;;;;;;0.10;0.10;;;13.70;70.50;;;;;;6125321;23;20332;-63
2023/08/08 01:17:36;;;;;;;4.85;1.65;;;13.60;70.60;;;;;;6100113;23;20424;-63
2023/08/08 01:20:05;;;;;;;0.10;0.10;;;13.60;70.60;;;;;;6099555;23;20347;-63
2023/08/08 01:23:10;;;;;;;0.55;0.50;;;13.60;70.60;;;;;;6099706;23;20010;-64
2023/08/08 01:25:37;;;;;;;0.10;0.10;;;13.70;70.70;;;;;;6124629;23;20014;-64
2023/08/08 01:28:05;;;;;;;0.10;0.10;;;13.70;70.20;;;;;;6099827;23;20021;-64
2023/08/08 01:30:31;;;;;;;0.10;0.10;;;13.60;70.20;;;;;;6124862;23;20443;-63
2023/08/08 01:32:57;;;;;;;0.10;0.10;;;13.60;70.50;;;;;;6099570;23;20443;-63
2023/08/08 01:35:26;;;;;;;0.00;0.00;;;13.50;70.80;;;;;;6124820;23;20014;-63
2023/08/08 01:38:48;;;;;;;0.20;0.20;;;13.50;70.90;;;;;;6075588;23;20022;-63
2023/08/08 01:41:18;;;;;;;0.20;0.20;;;13.50;70.90;;;;;;6125019;23;20018;-63
2023/08/08 01:43:45;;;;;;;0.10;0.10;;;13.50;70.80;;;;;;6099842;23;20025;-64
2023/08/08 01:46:11;;;;;;;0.10;0.10;;;13.40;71.20;;;;;;6074855;23;20435;-63
2023/08/08 01:48:37;;;;;;;0.10;0.10;;;13.40;70.70;;;;;;6099632;23;20010;-63
2023/08/08 01:51:03;;;;;;;0.10;0.10;;;13.50;71.40;;;;;;6125067;23;20009;-63
2023/08/08 01:53:29;;;;;;;0.20;0.10;;;13.50;71.80;;;;;;6099415;23;20069;-62
2023/08/08 01:55:55;;;;;;;0.10;0.10;;;13.50;72.60;;;;;;6098969;23;20017;-64
2023/08/08 01:58:21;;;;;;;0.10;0.10;;;13.50;71.70;;;;;;6125835;23;20081;-63
2023/08/08 02:00:48;;;;;;;0.10;0.10;;;13.60;71.40;;;;;;6124618;23;20018;-63
2023/08/08 02:03:14;;;;;;;0.10;0.10;;;13.60;71.20;;;;;;6125349;23;20380;-63
2023/08/08 02:05:40;;;;;;;0.10;0.10;;;13.70;71.10;;;;;;6124705;23;20018;-63
2023/08/08 02:08:06;;;;;;;0.10;0.10;;;13.60;71.80;;;;;;6099661;23;20010;-63
2023/08/08 02:10:32;;;;;;;0.10;0.10;;;13.60;71.30;;;;;;6099207;23;20016;-62
2023/08/08 02:12:58;;;;;;;1.08;0.32;;;13.60;71.30;;;;;;6125077;23;20018;-63
2023/08/08 02:15:24;;;;;;;0.10;0.10;;;13.60;71.20;;;;;;6098681;23;20068;-64
2023/08/08 02:17:51;;;;;;;0.10;0.10;;;13.70;71.30;;;;;;6075395;23;20018;-63
2023/08/08 02:20:17;;;;;;;0.10;0.10;;;13.70;70.50;;;;;;6124501;23;20013;-62
2023/08/08 02:22:44;;;;;;;0.35;0.20;;;13.60;72.00;;;;;;6075662;23;20045;-63
2023/08/08 02:25:10;;;;;;;0.10;0.10;;;13.60;71.10;;;;;;6125737;23;20025;-63
2023/08/08 02:27:36;;;;;;;0.20;0.20;;;13.60;71.30;;;;;;6101491;23;20021;-63
2023/08/08 02:30:02;;;;;;;0.10;0.10;;;13.60;71.30;;;;;;6126924;23;20376;-64
2023/08/08 02:32:28;;;;;;;0.10;0.10;;;13.60;71.30;;;;;;6076693;23;20037;-62
2023/08/08 02:34:54;;;;;;;0.20;0.20;;;13.60;71.40;;;;;;6076830;23;20014;-63
2023/08/08 02:37:20;;;;;;;0.65;0.22;;;13.60;71.40;;;;;;6126835;23;20085;-63
2023/08/08 02:39:46;;;;;;;0.10;0.10;;;13.70;71.40;;;;;;6126940;23;20494;-63
2023/08/08 02:42:12;;;;;;;0.10;0.10;;;13.60;71.40;;;;;;6126929;23;20313;-63
2023/08/08 02:44:38;;;;;;;0.10;0.10;;;13.60;71.50;;;;;;6100685;23;20355;-63
2023/08/08 02:47:05;;;;;;;0.22;0.20;;;13.60;71.70;;;;;;6126736;23;20010;-63
2023/08/08 02:49:33;;;;;;;0.35;0.25;;;13.60;71.80;;;;;;6100780;23;20101;-62
2023/08/08 02:52:00;;;;;;;0.10;0.10;;;13.50;71.80;;;;;;6126603;23;20089;-62
2023/08/08 02:54:26;;;;;;;0.10;0.10;;;13.40;71.60;;;;;;6100430;23;20017;-63
2023/08/08 02:56:52;;;;;;;0.10;0.10;;;13.40;71.80;;;;;;6126424;23;20496;-62
2023/08/08 02:59:18;;;;;;;;;;;13.40;72.00;;;;;;6101213;23;20033;-62
2023/08/08 03:01:45;;;;;;;0.10;0.10;;;13.40;71.80;;;;;;6126410;23;19996;-62
2023/08/08 03:04:11;;;;;;;0.10;0.10;;;13.40;71.70;;;;;;6126523;23;20024;-63
2023/08/08 03:06:37;;;;;;;0.10;0.10;;;13.40;71.70;;;;;;6126218;23;20022;-63
2023/08/08 03:09:03;;;;;;;0.10;0.10;;;13.40;71.80;;;;;;6100803;23;20010;-63
2023/08/08 03:11:29;;;;;;;0.10;0.10;;;13.30;71.80;;;;;;6126128;23;20049;-63
2023/08/08 03:13:55;;;;;;;0.10;0.10;;;13.30;71.80;;;;;;6100684;23;20014;-62
2023/08/08 03:16:21;;;;;;;0.10;0.10;;;13.20;72.00;;;;;;6126193;23;20479;-63
2023/08/08 03:18:47;;;;;;;0.10;0.10;;;13.20;72.00;;;;;;6126458;23;20010;-63
2023/08/08 03:21:13;;;;;;;0.17;0.10;;;13.20;72.10;;;;;;6126079;23;20057;-63
2023/08/08 03:23:39;;;;;;;0.17;0.17;;;13.20;72.10;;;;;;6100393;23;20017;-62
2023/08/08 03:26:05;;;;;;;0.10;0.10;;;13.20;72.00;;;;;;6099669;23;20018;-62
2023/08/08 03:28:31;;;;;;;0.08;0.08;;;13.20;72.20;;;;;;6076793;23;20057;-62
2023/08/08 03:30:57;;;;;;;0.10;0.10;;;13.20;72.10;;;;;;6125756;23;20446;-62
2023/08/08 03:33:23;;;;;;;0.13;0.13;;;13.20;72.10;;;;;;6126403;23;20009;-62
2023/08/08 03:35:49;;;;;;;0.20;0.20;;;13.20;72.10;;;;;;6125456;23;20065;-62
2023/08/08 03:38:15;;;;;;;0.10;0.10;;;13.10;72.20;;;;;;6100640;23;20368;-63
2023/08/08 03:40:41;;;;;;;0.15;0.15;;;13.20;72.20;;;;;;6099944;23;20014;-62
2023/08/08 03:43:07;;;;;;;0.10;0.10;;;13.10;72.20;;;;;;6126288;23;20018;-62
2023/08/08 03:45:33;;;;;;;0.13;0.10;;;13.20;72.40;;;;;;6099729;23;20010;-62
2023/08/08 03:47:59;;;;;;;0.20;0.20;;;13.10;72.50;;;;;;6126239;23;20045;-62
2023/08/08 03:50:26;;;;;;;0.43;0.10;;;13.10;72.50;;;;;;6125554;23;20313;-63
2023/08/08 03:52:52;;;;;;;0.10;0.10;;;13.10;72.40;;;;;;6126031;23;20018;-62
2023/08/08 03:55:19;;;;;;;0.10;0.10;;;13.10;72.50;;;;;;6125475;23;20013;-62
2023/08/08 03:57:44;;;;;;;;;;;13.10;71.80;;;;;;6101208;23;20014;-62
2023/08/08 04:00:11;;;;;;;0.10;0.10;;;13.10;72.10;;;;;;6125548;23;20256;-62
2023/08/08 04:02:37;;;;;;;1.00;0.20;;;13.10;71.60;;;;;;6126564;23;20040;-63
2023/08/08 04:05:04;;;;;;;0.10;0.10;;;13.20;72.20;;;;;;6126276;23;20093;-63
2023/08/08 04:07:31;;;;;;;0.10;0.10;;;13.10;71.70;;;;;;6100295;23;20065;-63
2023/08/08 04:09:56;;;;;;;;;;;13.20;72.40;;;;;;6100808;23;20424;-62
2023/08/08 04:12:22;;;;;;;0.10;0.10;;;13.10;72.40;;;;;;6125791;23;19996;-62
2023/08/08 04:14:48;;;;;;;0.10;0.10;;;13.10;72.40;;;;;;6125800;23;20018;-62
2023/08/08 04:17:14;;;;;;;0.10;0.10;;;13.10;72.50;;;;;;6125929;23;20013;-62
2023/08/08 04:19:40;;;;;;;0.50;0.50;;;13.10;72.50;;;;;;6125663;23;20447;-63
2023/08/08 04:22:06;;;;;;;0.10;0.10;;;13.10;72.70;;;;;;6125826;23;20009;-62
2023/08/08 04:24:32;;;;;;;0.93;0.20;;;13.10;72.60;;;;;;6099410;23;20319;-63
2023/08/08 04:26:58;;;;;;;0.10;0.10;;;13.20;72.60;;;;;;6125682;23;20010;-63
2023/08/08 04:29:24;;;;;;;0.10;0.10;;;13.20;72.50;;;;;;6125895;23;20017;-62
2023/08/08 04:31:51;;;;;;;0.30;0.20;;;13.20;72.50;;;;;;6099514;23;20013;-63
2023/08/08 04:34:17;;;;;;;;;;;13.30;72.50;;;;;;6075834;23;20038;-62
2023/08/08 04:36:43;;;;;;;0.10;0.10;;;13.30;72.40;;;;;;6098904;23;19993;-62
2023/08/08 04:39:09;;;;;;;0.28;0.28;;;13.30;72.20;;;;;;6099884;23;20688;-62
2023/08/08 04:41:35;;;;;;;0.75;0.22;;;13.40;72.20;;;;;;6125512;23;20010;-62
2023/08/08 04:44:01;;;;;;;1.08;0.20;;;13.40;72.20;;;;;;6099905;23;20010;-63
2023/08/08 04:46:27;;;;;;;0.10;0.10;;;13.40;72.20;;;;;;6125186;23;20017;-63
2023/08/08 04:48:53;;;;;;;0.20;0.20;;;13.40;72.40;;;;;;6125654;23;20348;-63
2023/08/08 04:51:19;;;;;;;0.93;0.85;;;13.40;72.50;;;;;;6125359;23;20047;-62
2023/08/08 04:53:45;;;;;;;0.10;0.10;;;13.50;72.50;;;;;;6125559;23;20014;-62
2023/08/08 04:56:12;;;;;;;0.10;0.10;;;13.60;72.30;;;;;;6124933;23;20359;-62
2023/08/08 04:58:38;;;;;;;;;;;13.70;72.30;;;;;;6126385;23;20075;-62
2023/08/08 05:01:04;;;;;;;0.40;0.28;;;13.70;72.10;;;;;;6125020;23;19992;-62
2023/08/08 05:03:30;;;;;;;0.10;0.10;;;13.70;72.10;;;;;;6125606;23;20022;-62
2023/08/08 05:05:56;;;;;;;0.10;0.10;;;13.70;72.10;;;;;;6124982;23;20323;-63
2023/08/08 05:08:22;;;;;;;0.10;0.10;;;13.70;72.40;;;;;;6099863;23;20018;-62
2023/08/08 05:10:48;;;;;;;0.17;0.13;;;13.70;72.60;;;;;;6125004;23;20478;-62
2023/08/08 05:13:14;;;;;;;0.75;0.75;;;13.70;72.80;;;;;;6125466;23;20065;-62
2023/08/08 05:15:40;;;;;;;0.10;0.10;;;13.70;72.90;;;;;;6098926;23;20080;-63
2023/08/08 05:18:06;;;;;;;0.70;0.40;;;13.80;72.80;;;;;;6125616;23;20018;-62
2023/08/08 05:20:32;;;;;;;0.10;0.10;;;13.90;72.80;;;;;;6124699;23;20317;-62
2023/08/08 05:22:58;;;;;;;0.52;0.52;;;13.90;72.90;;;;;;6099557;23;20042;-62
2023/08/08 05:25:24;;;;;;;0.10;0.10;;;13.90;73.10;;;;;;6124453;23;20013;-63
2023/08/08 05:27:50;;;;;;;0.10;0.10;;;13.90;72.90;;;;;;6125669;23;20022;-62
2023/08/08 05:30:16;;;;;;;0.10;0.10;;;14.00;73.00;;;;;;6124891;23;20010;-62
2023/08/08 05:32:42;;;;;;;0.10;0.10;;;14.00;73.10;;;;;;6099844;23;20044;-62
2023/08/08 05:35:08;;;;;;;0.13;0.13;;;14.00;73.20;;;;;;6124726;23;20018;-62
2023/08/08 05:37:34;;;;;;;0.10;0.10;;;14.00;72.80;;;;;;6125927;23;20012;-62
2023/08/08 05:40:00;;;;;;;0.10;0.10;;;14.10;73.60;;;;;;6125517;23;20079;-62
2023/08/08 05:42:26;;;;;;;0.10;0.10;;;14.10;73.50;;;;;;6125423;23;20014;-62
2023/08/08 05:44:52;;;;;;;0.20;0.20;;;14.20;73.40;;;;;;6125390;23;20424;-62
2023/08/08 05:47:19;;;;;;;0.88;0.80;;;14.20;73.50;;;;;;6125269;23;20006;-63
2023/08/08 05:49:44;;;;;;;;;;;14.30;73.50;;;;;;6100355;23;20014;-62
2023/08/08 05:52:11;;;;;;;0.10;0.10;;;14.30;73.50;;;;;;6125241;23;20025;-62
2023/08/08 05:54:36;;;;;;;;;;;14.30;74.10;;;;;;6125819;23;20041;-62
2023/08/08 05:57:03;;;;;;;0.10;0.10;;;14.30;73.40;;;;;;6099139;23;19984;-63
2023/08/08 05:59:29;;;;;;;0.35;0.20;;;14.40;72.70;;;;;;6126476;23;20093;-63
2023/08/08 06:01:55;;;;;;;0.10;0.10;;;14.40;73.60;;;;;;6127035;23;20010;-63
2023/08/08 06:04:21;;;;;;;0.10;0.10;;;14.50;73.80;;;;;;6127151;23;20014;-63
2023/08/08 06:06:48;;;;;;;0.10;0.10;;;14.50;73.80;;;;;;6100818;23;20014;-63
2023/08/08 06:09:16;;;;;;;0.10;0.10;;;14.60;73.50;;;;;;6101481;23;20052;-63
2023/08/08 06:11:43;;;;;;;0.10;0.10;;;14.70;73.60;;;;;;6100944;23;20140;-63
2023/08/08 06:14:09;;;;;;;0.10;0.10;;;14.70;72.80;;;;;;6101005;23;20018;-63
2023/08/08 06:16:35;;;;;;;0.10;0.10;;;14.80;73.00;;;;;;6100912;23;20010;-64
2023/08/08 06:19:01;;;;;;;0.20;0.20;;;14.90;73.10;;;;;;6101063;23;20014;-63
2023/08/08 06:21:27;;;;;;;0.10;0.10;;;15.00;73.00;;;;;;6126805;23;20017;-63
2023/08/08 06:23:56;;;;;;;0.10;0.10;;;15.20;73.20;;;;;;6076400;23;20339;-64
2023/08/08 06:26:22;;;;;;;0.10;0.10;;;15.20;72.90;;;;;;6100318;23;20081;-63
2023/08/08 06:28:48;;;;;;;0.10;0.10;;;15.30;72.60;;;;;;6126910;23;20491;-62
2023/08/08 06:31:15;;;;;;;0.25;0.25;;;15.40;72.40;;;;;;6126506;23;20076;-62
2023/08/08 06:33:41;;;;;;;;;;;15.60;72.40;;;;;;6101741;23;20018;-63
2023/08/08 06:36:07;;;;;;;0.10;0.10;;;15.70;72.20;;;;;;6126192;23;20263;-63
2023/08/08 06:38:33;;;;;;;0.10;0.10;;;15.80;71.90;;;;;;6127070;23;20014;-64
2023/08/08 06:41:20;;;;;;;0.10;0.10;;;15.80;71.90;;;;;;6126422;23;20085;-62
2023/08/08 06:43:46;;;;;;;0.10;0.10;;;15.90;72.00;;;;;;6126906;23;20077;-63
2023/08/08 06:46:12;;;;;;;0.10;0.10;;;16.00;71.70;;;;;;6126315;23;20014;-63
2023/08/08 06:48:41;;;;;;;0.10;0.10;;;16.20;71.60;;;;;;6126853;23;20036;-63
2023/08/08 06:51:07;;;;;;;0.43;0.35;;;16.30;71.60;;;;;;6126159;23;20323;-63
2023/08/08 06:53:33;;;;;;;0.22;0.20;;;16.40;71.90;;;;;;6076534;23;20014;-62
2023/08/08 06:55:59;;;;;;;0.10;0.10;;;16.60;71.50;;;;;;6126338;23;20022;-62
2023/08/08 06:58:25;;;;;;;0.10;0.10;;;16.70;71.40;;;;;;6126848;23;20348;-63
2023/08/08 07:00:51;;;;;;;0.10;0.10;;;16.90;72.10;;;;;;6100172;23;20025;-63
2023/08/08 07:03:17;;;;;;;0.00;0.00;;;17.20;71.70;;;;;;6100599;23;20022;-62
2023/08/08 07:05:43;;;;;;;0.10;0.10;;;17.40;71.20;;;;;;6126084;23;20443;-63
2023/08/08 07:08:09;;;;;;;0.10;0.10;;;17.60;70.70;;;;;;6126715;23;20065;-63
2023/08/08 07:10:36;;;;;;;0.35;0.30;;;17.60;69.60;;;;;;6125833;23;20041;-62
2023/08/08 07:13:02;;;;;;;0.10;0.10;;;17.70;70.00;;;;;;6126159;23;20025;-63
2023/08/08 07:15:28;;;;;;;0.10;0.10;;;18.00;69.60;;;;;;6125786;23;20085;-63
2023/08/08 07:17:54;;;;;;;0.10;0.10;;;18.30;69.10;;;;;;6100765;23;20018;-63
2023/08/08 07:20:20;;;;;;;0.10;0.10;;;18.50;67.70;;;;;;6125686;23;20400;-63
2023/08/08 07:22:46;;;;;;;0.10;0.10;;;18.80;67.50;;;;;;6100793;23;20014;-62
2023/08/08 07:25:12;;;;;;;0.10;0.10;;;19.20;66.90;;;;;;6125731;23;20022;-64
2023/08/08 07:27:38;;;;;;;0.10;0.10;;;19.50;66.00;;;;;;6127157;23;20356;-63
2023/08/08 07:30:06;;;;;;;0.10;0.10;;;19.60;65.10;;;;;;6100259;23;20022;-62
2023/08/08 07:32:33;;;;;;;0.10;0.10;;;19.50;63.40;;;;;;6126776;23;20059;-62
2023/08/08 07:35:02;;;;;;;0.10;0.10;;;19.50;65.10;;;;;;6076127;23;20017;-63
2023/08/08 07:37:28;;;;;;;0.10;0.10;;;19.50;64.60;;;;;;6100582;23;20014;-63
2023/08/08 07:39:54;;;;;;;0.10;0.10;;;19.60;65.00;;;;;;6100386;23;20396;-63
2023/08/08 07:42:20;;;;;;;0.10;0.10;;;19.50;64.80;;;;;;6126186;23;20014;-62
2023/08/08 07:44:46;;;;;;;0.17;0.17;;;19.60;64.60;;;;;;6126830;23;20018;-63
2023/08/08 07:47:12;;;;;;;0.20;0.20;;;19.60;64.40;;;;;;6126165;23;20006;-63
2023/08/08 07:49:38;;;;;;;0.10;0.10;;;19.60;63.60;;;;;;6126254;23;20021;-63
2023/08/08 07:52:05;;;;;;;0.10;0.10;;;19.80;63.40;;;;;;6126033;23;20015;-63
2023/08/08 07:54:31;;;;;;;0.10;0.10;;;20.10;62.70;;;;;;6125941;23;20081;-63
2023/08/08 07:56:57;;;;;;;0.10;0.10;;;20.40;62.20;;;;;;6125863;23;20017;-63
2023/08/08 07:59:23;;;;;;;0.28;0.20;;;20.60;61.60;;;;;;6126115;23;20014;-63
2023/08/08 08:01:49;;;;;;;0.10;0.10;;;20.90;61.20;;;;;;6125499;23;20553;-64
2023/08/08 08:04:16;;;;;;;0.10;0.10;;;21.20;59.60;;;;;;6126062;23;20010;-64
2023/08/08 08:06:42;;;;;;;0.10;0.10;;;21.70;59.50;;;;;;6125742;23;20021;-64
2023/08/08 08:09:08;;;;;;;0.00;0.00;;;22.10;58.80;;;;;;6126333;23;20018;-64
2023/08/08 08:11:34;;;;;;;;;;;22.60;57.30;;;;;;6126318;23;20017;-64
2023/08/08 08:14:00;;;;;;;0.20;0.20;;;23.20;57.40;;;;;;6125825;23;19956;-64
2023/08/08 08:16:26;;;;;;;;;;;23.80;55.60;;;;;;6100111;23;20025;-65
2023/08/08 08:18:52;;;;;;;0.10;0.10;;;24.60;56.90;;;;;;6148726;23;19913;-64
2023/08/08 08:21:17;;;;;;;;;;;25.20;54.10;;;;;;6099884;23;20014;-65
2023/08/08 08:23:44;;;;;;;0.65;0.38;;;25.60;50.50;;;;;;6125817;23;19917;-64
2023/08/08 08:26:10;;;;;;;0.13;0.13;;;26.20;49.60;;;;;;6125169;23;20022;-64
2023/08/08 08:28:36;;;;;;;0.10;0.10;;;27.00;48.60;;;;;;6126020;23;20022;-65
2023/08/08 08:31:21;;;;;;;0.20;0.20;;;27.70;47.00;;;;;;6125265;23;20049;-65
2023/08/08 08:33:47;;;;;;;0.17;0.17;;;28.40;43.30;;;;;;6125674;23;20014;-65
2023/08/08 08:36:13;;;;;;;0.20;0.20;;;28.70;39.70;;;;;;6125274;23;20018;-65
2023/08/08 08:38:39;;;;;;;0.20;0.20;;;29.40;40.10;;;;;;6125982;23;20321;-66
2023/08/08 08:41:05;;;;;;;0.20;0.20;;;30.00;37.70;;;;;;6099154;23;20076;-66
2023/08/08 08:43:32;;;;;;;0.20;0.20;;;30.70;35.40;;;;;;6125789;23;20017;-66
2023/08/08 08:46:04;;;;;;;0.30;0.30;;;31.30;34.50;;;;;;6125188;23;20010;-67
2023/08/08 08:48:31;;;;;;;0.20;0.20;;;31.80;32.90;;;;;;6125873;23;20089;-67
2023/08/08 08:50:57;;;;;;;0.40;0.40;;;32.30;31.60;;;;;;6075090;23;20024;-67
2023/08/08 08:53:23;;;;;;;0.30;0.30;;;32.80;30.20;;;;;;6099724;23;20469;-66
2023/08/08 08:55:51;;;;;;;0.28;0.28;;;33.40;29.60;;;;;;6124681;23;20010;-67
2023/08/08 08:58:18;;;;;;;0.30;0.30;;;33.70;28.60;;;;;;6125448;23;20021;-67
2023/08/08 09:00:45;;;;;;;0.77;0.77;;;34.20;28.30;;;;;;6098864;23;20022;-67
2023/08/08 09:03:13;;;;;;;4.03;1.67;;;34.80;27.40;;;;;;6125507;23;20440;-67
2023/08/08 09:05:41;;;;;;;0.20;0.20;;;35.40;27.40;;;;;;6099078;23;20057;-67
2023/08/08 09:08:09;;;;;;;0.20;0.20;;;35.90;24.90;;;;;;6099790;23;20389;-67
2023/08/08 09:10:35;;;;;;;0.95;0.85;;;36.20;25.50;;;;;;6099089;23;20010;-67
2023/08/08 09:13:01;;;;;;;0.30;0.30;;;36.70;23.90;;;;;;6099442;23;20014;-67
2023/08/08 09:15:47;;;;;;;0.40;0.40;;;37.00;23.70;;;;;;6124701;23;20010;-67
2023/08/08 09:18:13;;;;;;;0.40;0.40;;;37.30;23.10;;;;;;6099813;23;20020;-68
2023/08/08 09:20:39;;;;;;;0.40;0.40;;;37.80;22.30;;;;;;6124839;23;20022;-67
2023/08/08 09:23:05;;;;;;;0.30;0.30;;;38.30;21.40;;;;;;6075455;23;20384;-67
2023/08/08 09:25:31;;;;;;;1.05;0.50;;;38.90;22.00;;;;;;6124539;23;20347;-67
2023/08/08 09:27:57;;;;;;;0.40;0.40;;;39.60;21.30;;;;;;6125539;23;20014;-68
2023/08/08 09:30:23;;;;;;;0.40;0.40;;;39.90;20.00;;;;;;6124929;23;20010;-67
2023/08/08 09:32:49;;;;;;;0.40;0.40;;;40.10;20.10;;;;;;6099820;23;20062;-67
2023/08/08 09:35:16;;;;;;;0.60;0.60;;;40.30;19.60;;;;;;6126735;23;20081;-67
2023/08/08 09:37:42;;;;;;;0.50;0.50;;;40.70;18.90;;;;;;6127848;23;20010;-68
2023/08/08 09:40:11;;;;;;;0.55;0.50;;;41.40;18.90;;;;;;6126839;23;20021;-67
2023/08/08 09:42:37;;;;;;;0.60;0.60;;;41.40;17.40;;;;;;6102023;23;20010;-67
2023/08/08 09:45:04;;;;;;;0.50;0.50;;;41.70;17.30;;;;;;6127143;23;20092;-67
2023/08/08 09:47:31;;;;;;;0.50;0.50;;;42.30;17.10;;;;;;6101507;23;20010;-67
2023/08/08 09:50:15;;;;;;;0.50;0.50;;;42.80;15.30;;;;;;6127191;23;20022;-67
2023/08/08 09:52:45;;;;;;;0.50;0.50;;;43.00;15.80;;;;;;6101441;23;20021;-67
2023/08/08 09:55:12;;;;;;;0.50;0.50;;;43.20;16.40;;;;;;6100836;23;20025;-67
2023/08/08 09:57:58;;;;;;;0.60;0.52;;;43.10;15.90;;;;;;6101594;23;20006;-67
2023/08/08 10:00:27;;;;;;;0.77;0.75;;;43.50;16.00;;;;;;6100641;23;20021;-67
2023/08/08 10:02:54;;;;;;;0.40;0.40;;;43.90;15.10;;;;;;6127219;23;20018;-67
2023/08/08 10:05:22;;;;;;;0.47;0.43;;;44.00;16.30;;;;;;6126518;23;20022;-67
2023/08/08 10:07:48;;;;;;;0.63;0.63;;;44.70;14.30;;;;;;6101558;23;20022;-67
2023/08/08 10:10:14;;;;;;;0.60;0.60;;;44.70;13.70;;;;;;6126593;23;20022;-67
2023/08/08 10:12:41;;;;;;;0.80;0.80;;;44.60;12.50;;;;;;6101298;23;20014;-67
2023/08/08 10:15:28;;;;;;;0.85;0.85;;;44.50;13.40;;;;;;6126555;23;20013;-68
2023/08/08 10:17:57;;;;;;;0.70;0.70;;;44.80;14.60;;;;;;6127146;23;20018;-68
2023/08/08 10:20:25;;;;;;;0.70;0.70;;;44.80;13.30;;;;;;6100542;23;20013;-68
2023/08/08 10:22:54;;;;;;;0.65;0.65;;;45.20;14.60;;;;;;6126832;23;20510;-67
2023/08/08 10:26:03;;;;;;;0.52;0.52;;;45.60;13.60;;;;;;6100439;23;20088;-68
2023/08/08 10:28:33;;;;;;;0.68;0.68;;;46.20;13.30;;;;;;6127110;23;20021;-68
2023/08/08 10:31:08;;;;;;;0.60;0.60;;;46.50;13.00;;;;;;6126413;23;20484;-67
2023/08/08 10:34:11;;;;;;;1.20;1.00;;;46.70;13.00;;;;;;6126950;23;20447;-68
2023/08/08 10:36:57;;;;;;;0.60;0.60;;;47.10;12.60;;;;;;6126468;23;20018;-68
2023/08/08 10:39:25;;;;;;;0.77;0.77;;;47.20;12.60;;;;;;6126860;23;20013;-68
2023/08/08 10:41:51;;;;;;;0.70;0.70;;;47.30;11.20;;;;;;6100592;23;20017;-68
2023/08/08 10:44:42;;;;;;;0.73;0.73;;;47.50;11.10;;;;;;6100387;23;20022;-68
2023/08/08 10:47:08;;;;;;;1.27;1.17;;;47.70;12.30;;;;;;6125462;23;20009;-68
2023/08/08 10:49:34;;;;;;;0.70;0.70;;;48.20;12.00;;;;;;6100522;23;20046;-69
2023/08/08 10:52:03;;;;;;;0.98;0.88;;;48.80;11.80;;;;;;6100379;23;20014;-68
2023/08/08 10:54:30;;;;;;;1.13;1.02;;;48.80;11.80;;;;;;6126351;23;20089;-69
2023/08/08 10:56:58;;;;;;;0.98;0.93;;;49.40;12.20;;;;;;6126539;23;20033;-68
2023/08/08 10:59:45;;;;;;;1.00;1.00;;;49.60;11.70;;;;;;6100815;23;20041;-67
2023/08/08 11:02:11;;;;;;;0.95;0.95;;;49.70;11.00;;;;;;6100452;23;20014;-68
2023/08/08 11:04:37;;;;;;;1.25;1.00;;;49.70;11.00;;;;;;6100523;23;20022;-68
2023/08/08 11:07:04;;;;;;;1.10;1.00;;;50.00;11.70;;;;;;6126511;23;20057;-68
2023/08/08 11:09:30;;;;;;;1.42;1.30;;;50.60;11.00;;;;;;6126452;23;20010;-68
2023/08/08 11:11:56;;;;;;;1.20;1.10;;;50.80;9.60;;;;;;6126146;23;20021;-69
2023/08/08 11:14:23;;;;;;;1.45;1.35;;;50.80;10.30;;;;;;6126332;23;20018;-67
2023/08/08 11:16:51;;;;;;;1.30;1.20;;;50.90;9.00;;;;;;6100234;23;20006;-69
2023/08/08 11:19:19;;;;;;;1.30;1.20;;;50.80;10.20;;;;;;6093601;23;20024;-69
2023/08/08 11:21:48;;;;;;;1.30;1.20;;;50.90;10.20;;;;;;6071454;23;20014;-67
2023/08/08 11:24:15;;;;;;;1.30;1.20;;;51.00;10.20;;;;;;6071382;23;20436;-67
2023/08/08 11:26:47;;;;;;;1.42;1.33;;;49.20;11.00;;;;;;6096956;23;20018;-68
2023/08/08 11:29:13;;;;;;;1.30;1.20;;;48.60;11.30;;;;;;6097045;23;20073;-68
2023/08/08 11:31:39;;;;;;;1.10;1.00;;;48.70;12.10;;;;;;6047176;23;20011;-68
2023/08/08 11:34:05;;;;;;;1.13;1.02;;;49.70;11.40;;;;;;6071527;23;20014;-68
2023/08/08 11:36:33;;;;;;;1.30;1.20;;;50.20;10.60;;;;;;6070963;23;20231;-67
2023/08/08 11:39:07;;;;;;;1.05;1.00;;;50.40;10.30;;;;;;6071533;23;20011;-68
2023/08/08 11:41:35;;;;;;;1.10;1.00;;;50.10;10.50;;;;;;6072126;23;20011;-69
2023/08/08 11:44:22;;;;;;;1.30;1.20;;;50.30;10.80;;;;;;6071159;23;20010;-68
2023/08/08 11:46:48;;;;;;;1.35;1.25;;;50.80;9.90;;;;;;6070331;23;20010;-67
2023/08/08 11:49:41;;;;;;;1.30;1.20;;;51.10;10.20;;;;;;6096623;23;20018;-67
2023/08/08 11:52:08;;;;;;;1.45;1.35;;;51.50;9.60;;;;;;6096184;23;20363;-67
2023/08/08 11:54:38;;;;;;;1.33;1.23;;;50.00;10.40;;;;;;6071270;23;20038;-67
2023/08/08 11:57:04;;;;;;;1.00;1.00;;;47.50;11.90;;;;;;6096708;23;20018;-68
2023/08/08 11:59:31;;;;;;;1.10;1.00;;;46.00;13.30;;;;;;6096803;23;20097;-68
2023/08/08 12:01:58;;;;;;;1.00;0.98;;;47.40;12.70;;;;;;6096212;23;20038;-68
2023/08/08 12:04:24;;;;;;;0.82;0.82;;;49.10;12.10;;;;;;6071333;23;20372;-68
2023/08/08 12:06:50;;;;;;;1.02;0.98;;;49.90;11.50;;;;;;6096024;23;20046;-68
2023/08/08 12:09:17;;;;;;;1.13;1.02;;;51.10;10.80;;;;;;6071481;23;20014;-68
2023/08/08 12:11:46;;;;;;;1.95;1.20;;;50.00;11.20;;;;;;6096084;23;20429;-68
2023/08/08 12:14:14;;;;;;;1.13;1.02;;;49.60;11.60;;;;;;6070998;23;20010;-68
2023/08/08 12:16:43;;;;;;;1.23;1.13;;;50.70;10.70;;;;;;6096412;23;20142;-67
2023/08/08 12:19:10;;;;;;;1.40;1.30;;;51.60;9.90;;;;;;6102023;23;20165;-68
2023/08/08 12:21:37;;;;;;;1.33;1.23;;;52.00;9.70;;;;;;6125707;23;20034;-68
2023/08/08 12:24:03;;;;;;;1.30;1.20;;;52.60;9.40;;;;;;6125688;23;20014;-68
2023/08/08 12:26:29;;;;;;;1.50;1.40;;;52.50;8.40;;;;;;6099180;23;20017;-68
2023/08/08 12:28:55;;;;;;;1.48;1.38;;;52.00;8.40;;;;;;6099995;23;20021;-68
2023/08/08 12:31:21;;;;;;;1.38;1.27;;;52.50;8.80;;;;;;6125596;23;20332;-68
2023/08/08 12:33:48;;;;;;;1.60;1.50;;;53.00;8.70;;;;;;6125710;23;20022;-68
2023/08/08 12:36:14;;;;;;;1.80;1.67;;;53.40;8.80;;;;;;6125426;23;20036;-68
2023/08/08 12:38:41;;;;;;;5.53;1.95;;;53.80;8.50;;;;;;6125850;23;20072;-67
2023/08/08 12:41:07;;;;;;;1.65;1.55;;;53.80;8.30;;;;;;6125313;23;20041;-68
2023/08/08 12:43:34;;;;;;;1.80;1.70;;;54.00;8.70;;;;;;6125671;23;20014;-67
2023/08/08 12:46:00;;;;;;;1.58;1.48;;;54.30;8.70;;;;;;6125316;23;20068;-68
2023/08/08 12:48:26;;;;;;;2.13;1.92;;;54.20;8.50;;;;;;6125832;23;20014;-68
2023/08/08 12:50:52;;;;;;;2.03;1.83;;;54.40;9.00;;;;;;6125327;23;20379;-68
2023/08/08 12:53:18;;;;;;;2.40;2.20;;;54.50;8.00;;;;;;6125518;23;20021;-67